Time;durP1;ratioP1;P1;durP2;ratioP2;P2;SDS_P1;SDS_P2;PMS_P1;PMS_P2;Temp;Humidity;BMP_temperature;BMP_pressure;BME280_temperature;BME280_humidity;BME280_pressure;Samples;Min_cycle;Max_cycle;Signal;HPM_P1;HPM_P2
2022/11/17 09:47:14;;;;;;;139.38;14.05;;;;;;;18.70;74.92;97948.16;7305558;19;130580;-35
2022/11/17 09:49:51;;;;;;;126.03;13.45;;;;;;;19.02;73.67;97940.38;7304615;19;130836;-35
2022/11/17 09:52:23;;;;;;;;;;;;;;;19.40;72.33;97953.53;7301651;19;131211;-34
2022/11/17 09:54:51;;;;;;;111.20;11.60;;;;;;;19.77;70.15;97945.13;7302677;19;130671;-40
2022/11/17 09:57:42;;;;;;;79.75;9.00;;;;;;;19.95;69.34;97926.69;7314113;19;130896;-38
2022/11/17 10:00:21;;;;;;;72.28;10.60;;;;;;;20.28;67.69;97918.53;7308844;19;130597;-34
2022/11/17 10:02:47;;;;;;;110.38;10.40;;;;;;;20.61;67.41;97945.25;7317744;19;131523;-34
2022/11/17 10:05:39;;;;;;;81.55;9.52;;;;;;;20.87;66.45;97935.28;7316099;19;131779;-35
2022/11/17 10:08:14;;;;;;;74.72;8.68;;;;;;;20.94;66.03;97917.91;7316879;19;130044;-36
2022/11/17 10:10:50;;;;;;;107.43;12.10;;;;;;;21.30;64.74;97941.63;7316207;19;131159;-39
2022/11/17 10:13:25;;;;;;;87.32;9.65;;;;;;;21.35;64.42;97927.06;7314174;19;130918;-40
2022/11/17 10:15:57;;;;;;;116.43;13.23;;;;;;;21.53;63.97;97911.84;7308647;19;130818;-37
2022/11/17 10:18:22;;;;;;;98.32;11.45;;;;;;;21.81;63.08;97931.16;7308576;19;131760;-35
2022/11/17 10:20:48;;;;;;;108.35;12.38;;;;;;;21.91;62.83;97931.66;7307466;19;132098;-35
2022/11/17 10:23:17;;;;;;;99.40;10.85;;;;;;;22.03;62.46;97928.59;7309242;19;130755;-36
2022/11/17 10:26:04;;;;;;;82.55;9.15;;;;;;;22.16;62.27;97928.78;7315690;19;129993;-38
2022/11/17 10:28:31;;;;;;;85.90;9.68;;;;;;;22.26;62.11;97914.41;7315070;19;129868;-34
2022/11/17 10:31:01;;;;;;;95.25;11.07;;;;;;;22.34;61.46;97897.75;7316057;19;130457;-39
2022/11/17 10:33:42;;;;;;;80.80;9.88;;;;;;;22.50;61.38;97908.00;7315065;19;131221;-36
2022/11/17 10:36:26;;;;;;;80.65;9.20;;;;;;;22.62;60.90;97911.78;7314778;19;130631;-38
2022/11/17 10:38:54;;;;;;;102.57;12.10;;;;;;;22.68;60.55;97898.75;7311859;19;130287;-39
2022/11/17 10:41:31;;;;;;;87.20;10.10;;;;;;;22.68;60.50;97892.69;7309413;19;130452;-37
2022/11/17 10:44:21;;;;;;;123.82;13.60;;;;;;;22.68;60.60;97895.31;7305061;19;130664;-37
2022/11/17 10:46:54;;;;;;;91.03;11.27;;;;;;;22.56;60.81;97883.72;7303253;19;131426;-37
2022/11/17 10:49:29;;;;;;;84.78;9.88;;;;;;;22.42;61.26;97882.75;7304361;19;131747;-34
2022/11/17 10:52:15;;;;;;;91.22;11.00;;;;;;;22.27;61.94;97879.38;7306255;19;130546;-38
2022/11/17 10:54:41;;;;;;;101.90;11.93;;;;;;;22.10;62.33;97872.72;7304435;19;130756;-35
2022/11/17 10:57:14;;;;;;;78.53;9.43;;;;;;;22.10;61.86;97871.94;7297495;19;130261;-37
2022/11/17 11:00:00;;;;;;;120.10;14.05;;;;;;;22.16;62.29;97877.25;7280061;19;131239;-40
2022/11/17 11:02:44;;;;;;;87.95;9.98;;;;;;;22.23;62.16;97882.53;7280902;19;131029;-38
2022/11/17 11:05:20;;;;;;;98.18;11.98;;;;;;;22.20;61.83;97865.38;7274430;19;131144;-34
2022/11/17 11:07:45;;;;;;;84.88;9.70;;;;;;;22.41;61.90;97880.31;7285943;19;130752;-36
2022/11/17 11:10:13;;;;;;;90.50;10.65;;;;;;;22.38;61.69;97864.97;7279124;19;130803;-38
2022/11/17 11:12:52;;;;;;;102.70;12.43;;;;;;;22.55;61.18;97876.84;7279427;19;130836;-36
2022/11/17 11:15:20;;;;;;;116.68;13.55;;;;;;;22.64;61.34;97870.50;7279098;19;130956;-35
2022/11/17 11:17:46;;;;;;;79.68;9.18;;;;;;;22.70;61.09;97880.22;7273606;19;132204;-37
2022/11/17 11:20:32;;;;;;;77.00;9.02;;;;;;;22.76;60.19;97880.28;7279812;19;131154;-36
2022/11/17 11:23:24;;;;;;;76.70;8.73;;;;;;;22.84;59.94;97881.97;7286793;19;130666;-37
2022/11/17 11:25:56;;;;;;;87.22;10.10;;;;;;;22.93;59.56;97886.06;7278291;19;130749;-36
2022/11/17 11:28:33;;;;;;;78.05;9.27;;;;;;;22.99;59.82;97890.56;7286450;19;130263;-33
2022/11/17 11:31:23;;;;;;;94.00;10.82;;;;;;;22.91;59.65;97888.03;7285848;19;130387;-33
2022/11/17 11:34:14;;;;;;;96.65;10.95;;;;;;;22.79;60.33;97876.47;7283892;19;129506;-37
2022/11/17 11:36:59;;;;;;;92.38;10.55;;;;;;;22.81;60.55;97885.75;7284014;19;129943;-39
2022/11/17 11:39:30;;;;;;;75.85;9.02;;;;;;;22.71;60.64;97876.63;7287556;19;130723;-40
2022/11/17 11:42:21;;;;;;;119.75;13.75;;;;;;;22.58;61.30;97879.09;7281165;19;131530;-33
2022/11/17 11:45:46;;;;;;;88.63;10.82;;;;;;;22.39;61.68;97869.22;7279753;19;130553;-39
2022/11/17 11:48:21;;;;;;;92.10;11.18;;;;;;;22.35;62.13;97866.16;7271194;19;131589;-41
2022/11/17 11:51:05;;;;;;;85.65;11.07;;;;;;;22.25;61.89;97838.66;7274050;19;131066;-40
2022/11/17 11:53:47;;;;;;;75.93;9.10;;;;;;;22.38;62.16;97847.44;7280002;19;130587;-40
2022/11/17 11:56:28;;;;;;;73.00;9.07;;;;;;;22.35;61.96;97839.97;7285051;19;130661;-41
2022/11/17 11:58:59;;;;;;;80.80;10.23;;;;;;;22.42;61.79;97825.13;7281376;19;130412;-36
2022/11/17 12:01:27;;;;;;;73.07;9.35;;;;;;;22.44;61.62;97828.38;7280016;19;130690;-41
2022/11/17 12:04:05;;;;;;;95.35;11.77;;;;;;;22.44;61.35;97835.44;7282262;19;130325;-40
2022/11/17 12:06:56;;;;;;;98.78;12.98;;;;;;;22.58;60.94;97850.28;7278106;19;131040;-36
2022/11/17 12:09:21;;;;;;;98.13;12.32;;;;;;;22.68;61.02;97845.53;7276784;19;130242;-39
2022/11/17 12:12:00;;;;;;;151.02;18.75;;;;;;;22.66;61.00;97837.88;7267901;19;130943;-41
2022/11/17 12:14:34;;;;;;;140.65;17.38;;;;;;;22.81;60.17;97832.53;7249359;19;129958;-35
2022/11/17 12:17:25;;;;;;;140.27;17.95;;;;;;;22.68;60.96;97827.19;7245944;19;132333;-39
2022/11/17 12:20:01;;;;;;;129.50;16.25;;;;;;;22.68;60.85;97819.34;7252732;19;131143;-41
2022/11/17 12:22:31;;;;;;;133.32;16.92;;;;;;;22.61;60.72;97826.34;7252236;19;130742;-40
2022/11/17 12:25:26;;;;;;;128.82;16.70;;;;;;;22.52;61.39;97819.56;7255862;19;131099;-39
2022/11/17 12:27:52;;;;;;;127.40;15.57;;;;;;;22.43;61.68;97820.72;7253766;19;130954;-39
2022/11/17 12:30:29;;;;;;;127.93;15.77;;;;;;;22.22;61.91;97807.59;7257458;19;132129;-39
2022/11/17 12:32:56;;;;;;;126.07;16.20;;;;;;;22.29;62.03;97824.19;7256564;19;131319;-38
2022/11/17 12:35:24;;;;;;;126.18;15.88;;;;;;;22.28;62.50;97818.16;7257178;19;131504;-40
2022/11/17 12:38:21;;;;;;;137.40;17.98;;;;;;;22.28;62.43;97823.38;7247583;19;130724;-40
2022/11/17 12:40:50;;;;;;;137.95;17.88;;;;;;;22.36;62.09;97825.88;7243339;19;131855;-34
2022/11/17 12:43:18;;;;;;;138.80;18.10;;;;;;;22.34;62.08;97816.59;7246955;19;130719;-35
2022/11/17 12:45:52;;;;;;;136.50;17.83;;;;;;;22.44;62.22;97827.56;7248898;19;131236;-34
2022/11/17 12:48:19;;;;;;;74.60;10.00;;;;;;;22.44;61.81;97833.63;7261910;19;131827;-36
2022/11/17 12:51:22;;;;;;;123.20;15.30;;;;;;;22.51;61.58;97823.22;7246855;19;130518;-35
2022/11/17 12:53:50;;;;;;;147.55;18.48;;;;;;;22.57;61.63;97817.25;7247228;19;130877;-41
2022/11/17 12:56:36;;;;;;;115.82;15.00;;;;;;;22.59;61.23;97825.72;7254440;19;131246;-35
2022/11/17 12:59:21;;;;;;;159.73;19.50;;;;;;;22.59;61.30;97821.28;7242740;19;130137;-36
2022/11/17 13:02:08;;;;;;;154.15;19.38;;;;;;;22.62;61.49;97822.72;7248001;19;130809;-40
2022/11/17 13:05:14;;;;;;;117.27;14.90;;;;;;;22.46;61.60;97817.72;7249038;19;130427;-39
2022/11/17 13:07:40;;;;;;;132.90;16.17;;;;;;;22.43;62.09;97815.50;7248152;19;130828;-36
2022/11/17 13:10:21;;;;;;;130.60;16.58;;;;;;;22.26;61.77;97783.50;7245251;19;132020;-42
2022/11/17 13:12:46;;;;;;;134.93;16.55;;;;;;;22.31;62.02;97802.09;7249934;19;131218;-41
2022/11/17 13:15:22;;;;;;;147.13;18.08;;;;;;;22.27;62.19;97810.47;7250372;19;131231;-37
2022/11/17 13:17:47;;;;;;;141.40;17.52;;;;;;;22.28;62.02;97807.66;7241733;19;130597;-42
2022/11/17 13:20:25;;;;;;;135.52;17.65;;;;;;;22.36;61.77;97814.59;7252097;19;131183;-40
2022/11/17 13:23:11;;;;;;;140.75;17.83;;;;;;;22.36;61.75;97809.38;7250658;19;130701;-39
2022/11/17 13:25:37;;;;;;;141.68;18.25;;;;;;;22.41;62.29;97807.00;7243759;19;131764;-39
2022/11/17 13:28:02;;;;;;;143.55;18.08;;;;;;;22.44;61.45;97809.25;7246021;19;133053;-41
2022/11/17 13:30:29;;;;;;;144.48;17.77;;;;;;;22.49;61.42;97799.00;7248011;19;130390;-39
2022/11/17 13:32:58;;;;;;;141.70;17.55;;;;;;;22.58;61.54;97803.13;7247109;19;131947;-40
2022/11/17 13:35:28;;;;;;;146.50;17.88;;;;;;;22.58;61.74;97797.91;7252832;19;132643;-41
2022/11/17 13:38:22;;;;;;;139.13;17.75;;;;;;;22.55;61.42;97777.31;7248507;19;130621;-39
2022/11/17 13:40:52;;;;;;;143.20;18.13;;;;;;;22.55;60.94;97787.78;7246661;19;132347;-40
2022/11/17 13:43:23;;;;;;;140.10;18.05;;;;;;;22.60;61.27;97795.91;7245076;19;130921;-39
2022/11/17 13:45:49;;;;;;;144.70;18.60;;;;;;;22.55;61.10;97795.66;7242797;19;131112;-38
2022/11/17 13:48:33;;;;;;;;;;;;;;;22.48;61.42;97792.13;7250899;19;132069;-39
2022/11/17 13:51:24;;;;;;;73.47;9.52;;;;;;;22.41;61.91;97791.28;7255302;19;131604;-41
2022/11/17 13:53:54;;;;;;;180.85;22.55;;;;;;;22.26;62.25;97783.50;7269728;19;130961;-39
2022/11/17 13:56:29;;;;;;;129.27;15.98;;;;;;;22.30;62.37;97805.69;7246906;19;132184;-38
2022/11/17 13:58:55;;;;;;;134.00;17.65;;;;;;;22.34;62.54;97800.88;7243845;19;130423;-40
2022/11/17 14:01:31;;;;;;;145.18;17.13;;;;;;;22.33;62.22;97805.31;7247172;19;130839;-40
2022/11/17 14:04:14;;;;;;;142.43;18.55;;;;;;;22.39;61.82;97798.53;7244099;19;131385;-36
2022/11/17 14:07:02;;;;;;;131.90;16.73;;;;;;;22.43;61.65;97799.78;7241942;19;131662;-40
2022/11/17 14:09:30;;;;;;;148.98;18.27;;;;;;;22.49;62.04;97799.00;7243811;19;132663;-37
2022/11/17 14:11:57;;;;;;;126.82;16.10;;;;;;;22.48;61.42;97792.94;7243748;19;131642;-40
2022/11/17 14:14:39;;;;;;;141.02;17.98;;;;;;;22.57;61.78;97804.97;7242427;19;129776;-37
2022/11/17 14:17:21;;;;;;;129.13;16.13;;;;;;;22.52;61.61;97788.16;7243333;19;131117;-40
2022/11/17 14:19:47;;;;;;;145.70;18.48;;;;;;;22.55;61.11;97785.19;7246139;19;131157;-38
2022/11/17 14:22:12;;;;;;;136.40;16.57;;;;;;;;;;7243157;19;130099;-39
2022/11/17 14:24:39;;;;;;;150.10;18.77;;;;;;;22.63;61.33;97795.50;7243243;19;130520;-41
2022/11/17 14:27:11;;;;;;;;;;;;;;;22.55;62.00;97798.28;7246197;19;131533;-40
2022/11/17 14:29:37;;;;;;;144.68;18.05;;;;;;;22.51;61.94;97797.03;7247627;19;130624;-39
2022/11/17 14:32:02;;;;;;;138.13;16.92;;;;;;;22.48;61.79;97794.75;7247029;19;130669;-40
2022/11/17 14:34:28;;;;;;;150.47;18.70;;;;;;;22.42;61.70;97803.38;7246543;19;131059;-35
2022/11/17 14:36:54;;;;;;;122.15;15.93;;;;;;;22.32;62.63;97805.50;7248527;19;132104;-41
2022/11/17 14:39:20;;;;;;;;;;;;;;;22.27;62.81;97806.06;7248304;19;132381;-36
2022/11/17 14:41:47;;;;;;;156.82;19.83;;;;;;;22.15;62.58;97796.28;7249869;19;130306;-36
2022/11/17 14:44:13;;;;;;;136.55;16.90;;;;;;;22.14;62.54;97784.19;7247078;19;130478;-41
2022/11/17 14:46:38;;;;;;;130.18;16.73;;;;;;;22.24;62.76;97806.44;7248231;19;131278;-36
2022/11/17 14:49:04;;;;;;;156.53;16.67;;;;;;;22.19;63.16;97795.72;7247193;19;132006;-39
2022/11/17 14:51:30;;;;;;;154.93;16.50;;;;;;;22.18;63.13;97795.91;7250368;19;131016;-37
2022/11/17 14:53:55;;;;;;;171.93;19.05;;;;;;;22.18;62.91;97794.09;7249455;19;132103;-35
2022/11/17 14:56:22;;;;;;;180.50;18.77;;;;;;;22.18;63.17;97798.53;7251724;19;132341;-40
2022/11/17 14:58:51;;;;;;;;;;;;;;;22.16;63.30;97797.91;7246839;19;131341;-40
2022/11/17 15:01:22;;;;;;;191.13;19.63;;;;;;;22.25;62.57;97796.75;7244323;19;131023;-41
2022/11/17 15:03:50;;;;;;;192.38;20.05;;;;;;;22.23;63.09;97796.16;7246126;19;131422;-41
2022/11/17 15:06:15;;;;;;;229.27;23.77;;;;;;;22.24;62.43;97798.59;7242077;19;132510;-35
2022/11/17 15:08:41;;;;;;;166.27;17.50;;;;;;;22.26;62.74;97803.63;7245502;19;131369;-34
2022/11/17 15:11:13;;;;;;;151.70;15.97;;;;;;;22.25;62.94;97802.00;7249847;19;131568;-35
2022/11/17 15:13:38;;;;;;;173.52;18.92;;;;;;;22.28;62.22;97812.91;7246233;19;132231;-39
2022/11/17 15:16:04;;;;;;;159.75;16.90;;;;;;;22.25;62.47;97807.22;7248333;19;133786;-41
2022/11/17 15:18:31;;;;;;;181.55;18.75;;;;;;;22.18;62.91;97812.41;7242466;19;131435;-40
2022/11/17 15:21:08;;;;;;;166.13;17.17;;;;;;;22.13;63.28;97809.53;7248019;19;131646;-35
2022/11/17 15:23:37;;;;;;;;;;;;;;;22.07;63.28;97814.69;7245579;19;131738;-35
2022/11/17 15:26:04;;;;;;;166.98;17.85;;;;;;;22.01;63.43;97816.28;7246176;19;131005;-35
2022/11/17 15:28:29;;;;;;;163.55;17.15;;;;;;;21.88;63.49;97796.00;7238848;19;131685;-40
2022/11/17 15:30:54;;;;;;;177.70;18.60;;;;;;;21.87;63.73;97815.31;7248517;19;131497;-40
2022/11/17 15:33:20;;;;;;;183.40;19.25;;;;;;;21.81;63.71;97816.06;7245937;19;131571;-41
2022/11/17 15:35:45;;;;;;;169.73;18.03;;;;;;;21.72;64.27;97822.34;7246614;19;131901;-41
2022/11/17 15:38:10;;;;;;;171.68;17.77;;;;;;;21.66;64.94;97823.09;7246707;19;131313;-35
2022/11/17 15:40:36;;;;;;;169.77;17.83;;;;;;;21.61;65.05;97824.63;7248178;19;130758;-42
2022/11/17 15:43:04;;;;;;;169.63;18.80;;;;;;;21.58;64.67;97815.34;7245756;19;130701;-41
2022/11/17 15:45:31;;;;;;;172.18;18.05;;;;;;;21.56;65.01;97812.09;7248052;19;130829;-40
2022/11/17 15:47:57;;;;;;;176.25;18.65;;;;;;;21.59;64.62;97814.34;7252893;19;131128;-39
2022/11/17 15:50:23;;;;;;;166.85;17.83;;;;;;;21.60;64.48;97815.97;7246881;19;130986;-40
2022/11/17 15:52:48;;;;;;;153.68;16.42;;;;;;;21.62;64.40;97811.34;7249216;19;131527;-37
2022/11/17 15:55:13;;;;;;;172.55;17.58;;;;;;;21.71;64.62;97814.69;7243516;19;130160;-37
2022/11/17 15:57:39;;;;;;;172.57;18.57;;;;;;;21.72;64.15;97811.88;7244389;19;130784;-40
2022/11/17 16:00:05;;;;;;;147.02;15.70;;;;;;;21.81;63.87;97813.44;7244617;19;131457;-36
2022/11/17 16:02:30;;;;;;;180.68;19.40;;;;;;;21.85;64.22;97816.47;7250684;19;130293;-40
2022/11/17 16:04:56;;;;;;;174.32;18.60;;;;;;;21.95;64.01;97811.75;7241257;19;132458;-40
2022/11/17 16:07:21;;;;;;;188.00;19.67;;;;;;;22.00;63.30;97809.41;7241622;19;130454;-36
2022/11/17 16:09:46;;;;;;;162.82;16.83;;;;;;;22.00;63.95;97804.16;7254198;19;132285;-38
2022/11/17 16:12:12;;;;;;;156.50;16.05;;;;;;;22.08;63.79;97801.44;7257920;19;131369;-40
2022/11/17 16:14:37;;;;;;;168.07;17.63;;;;;;;22.13;63.10;97809.53;7246457;19;130427;-41
2022/11/17 16:17:02;;;;;;;223.97;23.27;;;;;;;22.20;63.14;97809.59;7231973;19;132196;-40
2022/11/17 16:19:28;;;;;;;195.80;20.13;;;;;;;22.25;62.77;97799.38;7242544;19;130661;-39
2022/11/17 16:21:53;;;;;;;102.17;10.73;;;;;;;22.29;62.30;97800.63;7254890;19;129998;-35
2022/11/17 16:24:19;;;;;;;152.70;16.27;;;;;;;22.31;62.40;97801.28;7249722;19;131488;-42
2022/11/17 16:26:44;;;;;;;167.70;17.45;;;;;;;22.35;62.04;97794.63;7247172;19;131553;-37
2022/11/17 16:29:10;;;;;;;174.57;18.23;;;;;;;22.38;61.86;97802.94;7243735;19;130481;-41
2022/11/17 16:31:36;;;;;;;161.77;16.53;;;;;;;22.30;62.03;97786.53;7248780;19;131593;-40
2022/11/17 16:34:05;;;;;;;191.77;19.83;;;;;;;22.29;62.45;97791.00;7243282;19;130073;-40
2022/11/17 16:36:33;;;;;;;187.45;19.15;;;;;;;22.25;63.06;97794.16;7242329;19;131809;-39
2022/11/17 16:39:00;;;;;;;193.93;20.13;;;;;;;22.26;62.94;97793.16;7240349;19;130697;-38
2022/11/17 16:41:36;;;;;;;185.90;19.00;;;;;;;22.20;62.52;97789.47;7246236;19;132472;-41
2022/11/17 16:44:06;;;;;;;187.77;19.52;;;;;;;22.19;63.27;97790.50;7242916;19;131015;-37
2022/11/17 16:46:31;;;;;;;185.60;18.90;;;;;;;22.21;63.15;97791.13;7242348;19;132012;-41
2022/11/17 16:49:02;;;;;;;205.70;21.05;;;;;;;22.24;62.82;97793.34;7243597;19;129904;-41
2022/11/17 16:51:28;;;;;;;145.20;14.93;;;;;;;22.26;62.75;97793.97;7244388;19;130695;-40
2022/11/17 16:53:55;;;;;;;121.95;12.98;;;;;;;22.27;62.35;97795.59;7262226;19;131870;-40
2022/11/17 16:56:21;;;;;;;172.23;17.55;;;;;;;22.36;62.39;97796.28;7248576;19;129730;-38
2022/11/17 16:58:49;;;;;;;158.57;16.67;;;;;;;22.39;62.33;97799.34;7249509;19;131435;-41
2022/11/17 17:01:19;;;;;;;165.40;17.30;;;;;;;22.43;62.12;97794.53;7253459;19;131203;-40
2022/11/17 17:03:44;;;;;;;184.18;18.45;;;;;;;22.44;61.97;97798.75;7250671;19;130088;-39
2022/11/17 17:06:12;;;;;;;165.75;17.02;;;;;;;22.46;61.82;97796.78;7251414;19;130823;-40
2022/11/17 17:08:38;;;;;;;145.55;15.15;;;;;;;22.52;61.57;97788.16;7247271;19;131370;-36
2022/11/17 17:11:06;;;;;;;154.07;16.17;;;;;;;22.52;62.13;97794.22;7252838;19;130913;-41
2022/11/17 17:13:33;;;;;;;158.80;16.83;;;;;;;22.57;61.67;97791.88;7249122;19;130987;-40
2022/11/17 17:16:06;;;;;;;146.43;15.23;;;;;;;22.59;61.46;97789.84;7253137;19;130495;-39
2022/11/17 17:18:32;;;;;;;151.73;15.80;;;;;;;22.58;61.54;97787.41;7248714;19;131497;-41
2022/11/17 17:20:57;;;;;;;166.95;17.63;;;;;;;22.56;61.96;97790.22;7251423;19;131386;-40
2022/11/17 17:23:23;;;;;;;147.30;15.87;;;;;;;22.58;61.81;97787.41;7250330;19;131601;-41
2022/11/17 17:25:59;;;;;;;152.80;15.97;;;;;;;22.47;62.29;97795.75;7255940;19;130020;-42
2022/11/17 17:28:24;;;;;;;143.52;15.20;;;;;;;22.42;62.46;97791.09;7251904;19;130946;-40
2022/11/17 17:30:53;;;;;;;155.73;16.33;;;;;;;22.24;62.59;97779.44;7252691;19;131826;-42
2022/11/17 17:33:19;;;;;;;170.32;17.98;;;;;;;22.33;62.29;97794.03;7252541;19;131825;-37
2022/11/17 17:35:44;;;;;;;157.02;16.77;;;;;;;22.27;62.40;97789.53;7252792;19;130945;-35
2022/11/17 17:38:10;;;;;;;148.50;15.55;;;;;;;22.26;63.13;97787.94;7254291;19;130584;-37
2022/11/17 17:40:35;;;;;;;151.00;15.75;;;;;;;22.26;62.80;97796.59;7255361;19;132990;-41
2022/11/17 17:43:00;;;;;;;79.43;8.70;;;;;;;22.28;63.08;97796.41;7275330;19;130935;-39
2022/11/17 17:45:25;;;;;;;151.75;16.08;;;;;;;22.15;62.80;97775.34;7250637;19;131774;-36
2022/11/17 17:47:51;;;;;;;88.70;9.60;;;;;;;22.31;62.97;97790.78;7264294;19;130897;-34
2022/11/17 17:50:16;;;;;;;85.68;9.25;;;;;;;22.29;62.78;97784.94;7269508;19;129860;-36
2022/11/17 17:52:42;;;;;;;90.03;9.73;;;;;;;22.29;62.56;97788.38;7282492;19;130727;-39
2022/11/17 17:55:07;;;;;;;152.43;11.82;;;;;;;22.34;62.75;97790.41;7280276;19;131127;-42
2022/11/17 17:57:33;;;;;;;103.85;8.23;;;;;;;22.33;62.75;97788.81;7283167;19;130633;-44
2022/11/17 17:59:58;;;;;;;111.13;8.93;;;;;;;22.34;62.33;97786.00;7282478;19;130121;-33
2022/11/17 18:02:23;;;;;;;109.13;8.52;;;;;;;22.39;62.12;97782.81;7281854;19;130615;-35
2022/11/17 18:04:49;;;;;;;132.88;10.45;;;;;;;22.41;62.14;97781.59;7280838;19;130760;-42
2022/11/17 18:07:14;;;;;;;103.67;8.03;;;;;;;22.42;62.04;97778.00;7281432;19;130211;-36
2022/11/17 18:09:39;;;;;;;105.07;8.05;;;;;;;22.42;62.30;97787.66;7289312;19;130124;-39
2022/11/17 18:12:05;;;;;;;148.38;11.50;;;;;;;22.42;62.77;97785.03;7287518;19;130407;-37
2022/11/17 18:14:30;;;;;;;134.10;10.48;;;;;;;22.39;62.41;97782.81;7288449;19;129988;-38
2022/11/17 18:16:55;;;;;;;180.18;13.68;;;;;;;22.33;62.21;97794.03;7286570;19;130142;-34
2022/11/17 18:19:21;;;;;;;114.45;8.90;;;;;;;22.28;62.98;97788.56;7287436;19;131456;-42
2022/11/17 18:21:46;;;;;;;120.57;9.47;;;;;;;22.27;62.77;97786.91;7290000;19;130977;-42
2022/11/17 18:24:12;;;;;;;118.72;9.50;;;;;;;22.09;63.32;97776.91;7286859;19;129969;-38
2022/11/17 18:26:39;;;;;;;142.10;11.02;;;;;;;22.14;63.42;97778.94;7287201;19;129355;-34
2022/11/17 18:29:10;;;;;;;129.38;10.32;;;;;;;22.16;62.91;97776.97;7293502;19;130910;-40
2022/11/17 18:31:36;;;;;;;118.53;9.95;;;;;;;22.20;62.86;97780.81;7288346;19;130807;-32
2022/11/17 18:34:22;;;;;;;130.35;11.45;;;;;;;22.19;62.38;97787.03;7286032;19;130648;-36
2022/11/17 18:36:52;;;;;;;139.50;11.75;;;;;;;22.18;62.65;97785.44;7285593;19;129649;-41
2022/11/17 18:39:18;;;;;;;138.18;11.73;;;;;;;22.24;62.66;97782.88;7284449;19;130888;-30
2022/11/17 18:41:43;;;;;;;123.13;10.50;;;;;;;22.23;63.22;97772.59;7289833;19;129956;-36
2022/11/17 18:44:18;;;;;;;128.80;11.02;;;;;;;22.30;62.87;97782.13;7288866;19;132291;-41
2022/11/17 18:46:43;;;;;;;126.10;10.63;;;;;;;22.37;62.12;97784.78;7285436;19;129937;-36
2022/11/17 18:49:09;;;;;;;128.23;10.70;;;;;;;22.38;62.10;97776.75;7287418;19;129830;-39
2022/11/17 18:51:34;;;;;;;140.75;11.60;;;;;;;22.35;62.19;97760.59;7288072;19;130893;-39
2022/11/17 18:54:00;;;;;;;121.33;10.50;;;;;;;22.42;62.31;97777.19;7285795;19;131059;-35
2022/11/17 18:56:34;;;;;;;125.80;10.83;;;;;;;22.44;62.39;97775.19;7285960;19;132404;-43
2022/11/17 18:59:00;;;;;;;219.82;18.20;;;;;;;22.43;62.36;97770.97;7294620;19;130384;-36
2022/11/17 19:01:27;;;;;;;109.50;9.52;;;;;;;22.43;62.00;97766.53;7288481;19;130153;-39
2022/11/17 19:03:54;;;;;;;133.63;11.43;;;;;;;22.39;62.12;97767.09;7286781;19;130555;-40
2022/11/17 19:06:22;;;;;;;131.80;10.85;;;;;;;22.36;62.46;97770.88;7284586;19;130014;-39
2022/11/17 19:08:48;;;;;;;123.80;10.23;;;;;;;22.30;62.68;97773.44;7287102;19;131191;-35
2022/11/17 19:11:14;;;;;;;133.23;10.97;;;;;;;22.17;62.91;97752.41;7288143;19;130538;-36
2022/11/17 19:13:41;;;;;;;123.70;10.45;;;;;;;22.27;63.06;97776.44;7285630;19;129717;-35
2022/11/17 19:16:22;;;;;;;101.63;8.65;;;;;;;22.26;62.84;97775.66;7284607;19;130827;-39
2022/11/17 19:18:49;;;;;;;134.40;11.10;;;;;;;22.28;62.63;97770.22;7286404;19;130540;-42
2022/11/17 19:21:17;;;;;;;123.55;10.30;;;;;;;22.30;62.80;97778.69;7287716;19;130337;-41
2022/11/17 19:23:44;;;;;;;130.20;10.82;;;;;;;22.28;62.73;97781.50;7287646;19;129132;-40
2022/11/17 19:26:12;;;;;;;126.30;10.32;;;;;;;22.27;63.05;97779.06;7285189;19;130118;-41
2022/11/17 19:28:38;;;;;;;135.48;11.15;;;;;;;22.23;63.34;97780.47;7284476;19;129677;-42
2022/11/17 19:31:18;;;;;;;30.58;3.20;;;;;;;22.15;63.07;97778.75;7296858;19;131010;-38
2022/11/17 19:33:45;;;;;;;45.03;4.63;;;;;;;22.08;63.40;97785.72;7315717;19;129114;-38
2022/11/17 19:36:14;;;;;;;64.10;5.20;;;;;;;22.08;63.61;97779.69;7307776;19;130068;-35
2022/11/17 19:38:41;;;;;;;23.85;2.72;;;;;;;22.07;63.79;97778.06;7314880;19;129853;-28
2022/11/17 19:41:13;;;;;;;26.85;3.03;;;;;;;21.93;63.61;97772.69;7316388;19;129570;-35
2022/11/17 19:43:39;;;;;;;28.65;3.28;;;;;;;21.98;63.84;97784.44;7314981;19;130568;-37
2022/11/17 19:46:07;;;;;;;46.83;4.33;;;;;;;22.03;63.76;97787.31;7312805;19;129711;-34
2022/11/17 19:48:32;;;;;;;20.08;2.63;;;;;;;21.93;63.93;97783.16;7316632;19;129023;-34
2022/11/17 19:50:59;;;;;;;27.60;3.10;;;;;;;21.97;64.31;97791.47;7316022;19;129955;-32
2022/11/17 19:53:25;;;;;;;35.60;3.60;;;;;;;21.95;64.24;97781.19;7314481;19;129883;-36
2022/11/17 19:55:50;;;;;;;39.47;4.03;;;;;;;22.06;63.61;97786.91;7313688;19;128950;-31
2022/11/17 19:58:18;;;;;;;33.80;3.53;;;;;;;22.03;63.40;97787.31;7314480;19;130166;-34
2022/11/17 20:00:44;;;;;;;48.20;4.25;;;;;;;22.09;63.31;97783.94;7314124;19;131654;-33
2022/11/17 20:03:11;;;;;;;21.58;2.63;;;;;;;22.07;63.91;97784.13;7317315;19;129554;-36
2022/11/17 20:05:37;;;;;;;31.95;3.08;;;;;;;22.12;63.34;97791.41;7312648;19;129826;-40
2022/11/17 20:08:02;;;;;;;20.70;2.35;;;;;;;22.11;63.90;97793.22;7312716;19;129608;-33
2022/11/17 20:10:28;;;;;;;25.77;2.55;;;;;;;22.15;63.34;97781.38;7314134;19;130779;-35
2022/11/17 20:12:53;;;;;;;45.78;4.18;;;;;;;22.15;63.14;97775.34;7312627;19;129334;-34
2022/11/17 20:15:18;;;;;;;35.85;3.70;;;;;;;22.17;63.53;97775.94;7312698;19;130224;-29
2022/11/17 20:17:44;;;;;;;42.85;4.35;;;;;;;22.20;63.55;97772.94;7313666;19;129379;-29
2022/11/17 20:20:10;;;;;;;19.05;2.30;;;;;;;22.18;62.93;97778.38;7315144;19;129369;-38
2022/11/17 20:22:35;;;;;;;17.05;1.98;;;;;;;22.22;63.43;97784.06;7316286;19;129444;-30
2022/11/17 20:25:00;;;;;;;22.00;2.60;;;;;;;22.28;62.91;97785.94;7312459;19;130093;-31
2022/11/17 20:27:26;;;;;;;25.33;2.88;;;;;;;22.23;63.04;97793.53;7313990;19;130302;-31
2022/11/17 20:29:52;;;;;;;35.83;3.93;;;;;;;22.20;63.20;97791.28;7311154;19;130935;-33
2022/11/17 20:32:17;;;;;;;29.25;3.13;;;;;;;22.14;63.54;97784.19;7314022;19;129050;-30
2022/11/17 20:34:43;;;;;;;68.35;5.78;;;;;;;22.13;63.46;97785.97;7310439;19;129561;-31
2022/11/17 20:37:08;;;;;;;25.42;2.60;;;;;;;22.14;63.62;97784.19;7312620;19;130051;-37
2022/11/17 20:39:33;;;;;;;25.83;2.73;;;;;;;22.13;63.41;97787.81;7311549;19;130468;-39
2022/11/17 20:41:58;;;;;;;34.72;3.38;;;;;;;22.12;63.15;97783.56;7312852;19;129277;-33
2022/11/17 20:44:24;;;;;;;27.45;3.13;;;;;;;22.12;63.33;97787.00;7312684;19;129555;-40
2022/11/17 20:46:53;;;;;;;41.27;4.17;;;;;;;22.14;63.42;97778.94;7308945;19;129872;-30
2022/11/17 20:49:19;;;;;;;41.60;4.18;;;;;;;22.03;63.14;97761.13;7311718;19;131203;-34
2022/11/17 20:51:45;;;;;;;24.10;2.50;;;;;;;22.18;63.52;97781.00;7314510;19;130894;-33
2022/11/17 20:54:11;;;;;;;41.72;3.97;;;;;;;22.14;63.44;97784.19;7312663;19;129312;-38
2022/11/17 20:56:36;;;;;;;35.90;3.57;;;;;;;22.18;63.02;97782.81;7308804;19;130520;-42
2022/11/17 20:59:02;;;;;;;25.02;2.40;;;;;;;22.18;63.36;97785.44;7315295;19;129221;-31
2022/11/17 21:01:27;;;;;;;58.97;5.47;;;;;;;22.22;63.28;97778.81;7312703;19;128904;-31
2022/11/17 21:03:53;;;;;;;63.63;5.75;;;;;;;22.20;63.18;97783.41;7313852;19;129276;-38
2022/11/17 21:06:21;;;;;;;27.98;2.88;;;;;;;22.24;63.07;97782.88;7308809;19;130472;-31
2022/11/17 21:08:47;;;;;;;24.83;2.60;;;;;;;22.21;62.95;97787.69;7314631;19;130443;-33
2022/11/17 21:14:06;;;;;;;47.05;4.47;;;;;;;22.29;62.83;97782.31;7309526;19;129005;-32